METAR rapporten vliegvelden

   
EHVK - Volkel Rnlafb, Netherlands
Afstand tot: ZW 18 km
Gewijzigd: 20-06-2019 05:55
Nevel, Bewolking  
Nevel, Bewolking  
   Wind: ZW 13 km/h
Wind: ZW 13 km/h
Temperatuur: 16°C
Dauwpunt: 15°C
Vochtigheid: 94%
Barometer: 1009 hPa
Bewolking: Bewolking
Zicht: 3 km
Bewolking: Licht bewolkt 700 ft,
Gedeeltelijk bewolkt 1000 ft,
Bewolking 1200 ft
EHVK 200355Z AUTO 23007KT 190V270 3300 BR FEW007 SCT010 OVC012 16/15 Q1009 YLO
EDLV - Niederrhein, Germany
Afstand tot: ZO 25 km
Gewijzigd: 20-06-2019 05:50
Nevel, Grotendeels bewolkt  
Nevel, Grotendeels bewolkt  
   Wind: Westen 9.3 km/h
Wind: Westen 9.3 km/h
Temperatuur: 16°C
Dauwpunt: 16°C
Vochtigheid: 100%
Barometer: 1010 hPa
Bewolking: Grotendeels bewolkt
Zicht: 5 km
Bewolking: Grotendeels bewolkt 1400 ft
EDLV 200350Z 26005KT 4500 BR BKN014 16/16 Q1010
EHDL - Deelen Rnlafb, Netherlands
Afstand tot: N 35 km
Gewijzigd: 20-06-2019 05:55
Nevel, Grotendeels bewolkt  
Nevel, Grotendeels bewolkt  
   Wind: ZW 11.1 km/h
Wind: ZW 11.1 km/h
Temperatuur: 16°C
Dauwpunt: 15°C
Vochtigheid: 94%
Barometer: 1009 hPa
Bewolking: Grotendeels bewolkt
Zicht: 3 km
Bewolking: Licht bewolkt 600 ft,
Gedeeltelijk bewolkt 800 ft,
Grotendeels bewolkt 900 ft
EHDL 200355Z AUTO 23006KT 200V280 2900 BR FEW006 SCT008 BKN009 16/15 Q1009 YLO
EHEH - Eindhoven Rnlafb, Netherlands
Afstand tot: ZW 48 km
Gewijzigd: 20-06-2019 05:55
Nevel, Grotendeels bewolkt  
Nevel, Grotendeels bewolkt  
   Wind: ZW 13 km/h
Wind: ZW 13 km/h
Temperatuur: 17°C
Dauwpunt: 15°C
Vochtigheid: 88%
Barometer: 1010 hPa
Bewolking: Grotendeels bewolkt
Zicht: 4 km
Bewolking: Licht bewolkt 600 ft,
Gedeeltelijk bewolkt 800 ft,
Grotendeels bewolkt 1500 ft
EHEH 200355Z AUTO 22007KT 190V250 3700 BR FEW006 SCT008 BKN015 17/15 Q1010 GRN
EHGR - Gilze-Rijen Rnla, Netherlands
Afstand tot: WZW 70 km
Gewijzigd: 20-06-2019 05:55
Nevel, Bewolking  
Nevel, Bewolking  
   Wind: ZZW 11.1 km/h
Wind: ZZW 11.1 km/h
Temperatuur: 16°C
Dauwpunt: 15°C
Vochtigheid: 94%
Barometer: 1009 hPa
Bewolking: Bewolking
Zicht: 3 km
Bewolking: Gedeeltelijk bewolkt 1300 ft,
Bewolking 1500 ft
EHGR 200355Z AUTO 21006KT 190V250 2500 BR SCT013 OVC015 16/15 Q1009 YLO
EBBL - Kleine-Brogel(Ba, Belgium
Afstand tot: ZZW 71 km
Gewijzigd: 20-06-2019 05:25
Grotendeels bewolkt  
Grotendeels bewolkt  
   Wind: ZZW 11.1 km/h
Wind: ZZW 11.1 km/h
Temperatuur: 16°C
Dauwpunt: 15°C
Vochtigheid: 94%
Barometer: 1011 hPa
Bewolking: Grotendeels bewolkt
Zicht: 5 km
Bewolking: Grotendeels bewolkt 1300 ft,
Grotendeels bewolkt 5800 ft
EBBL 200325Z AUTO 21006KT 5000 BKN013/// BKN058/// 16/15 Q1011 GRN

Script ontwikkeld door  Saratoga-weather.org Aangepast voor de template door  Weerstation Leuven

U vindt ons ook hier:

Het Weer Aktueel

European Weather Network

WeatherCloud

Weather Underground

Benelux Weer Netwerk

Apparatuur in gebruik:

Weerstation
Davis VP2

Weerprogramma
consoleWD

Weercomputer
Raspberry

Webleverancier
Stef van Bakel koeltechniek

Davis VP2

consoleWD

Raspberry

Stef van Bakel koeltechniek